Time;durP1;ratioP1;P1;durP2;ratioP2;P2;SDS_P1;SDS_P2;PMS_P1;PMS_P2;Temp;Humidity;BMP_temperature;BMP_pressure;BME280_temperature;BME280_humidity;BME280_pressure;Samples;Min_cycle;Max_cycle;Signal;HPM_P1;HPM_P2
2021/09/09 00:00:34;;;;;;;3.55;2.90;;;24.00;52.50;;;;;;4928206;29;20401;-69
2021/09/09 00:03:00;;;;;;;5.20;3.20;;;23.90;52.80;;;;;;4928505;29;20403;-71
2021/09/09 00:05:26;;;;;;;3.63;3.17;;;23.90;52.50;;;;;;4927903;29;20471;-73
2021/09/09 00:07:52;;;;;;;3.13;2.83;;;23.90;52.30;;;;;;4928575;29;20395;-70
2021/09/09 00:10:18;;;;;;;3.63;3.03;;;23.90;52.20;;;;;;4927022;29;20884;-71
2021/09/09 00:12:44;;;;;;;4.15;3.20;;;23.90;52.20;;;;;;4928731;29;20400;-70
2021/09/09 00:15:11;;;;;;;3.42;3.05;;;23.90;51.90;;;;;;4926249;29;21071;-72
2021/09/09 00:17:36;;;;;;;3.50;3.00;;;23.90;51.90;;;;;;4927291;29;20419;-72
2021/09/09 00:20:03;;;;;;;3.90;3.10;;;23.80;51.80;;;;;;4928259;29;20943;-71
2021/09/09 00:22:29;;;;;;;3.33;2.90;;;23.80;51.80;;;;;;4927614;29;20514;-71
2021/09/09 00:24:56;;;;;;;4.25;3.30;;;23.80;51.80;;;;;;4927391;29;21605;-71
2021/09/09 00:27:22;;;;;;;3.67;3.15;;;23.80;51.70;;;;;;4927840;29;20420;-68
2021/09/09 00:29:48;;;;;;;3.53;2.80;;;23.80;51.80;;;;;;4928008;29;20403;-67
2021/09/09 00:32:14;;;;;;;3.58;3.10;;;23.80;51.80;;;;;;4927311;29;20396;-71
2021/09/09 00:34:39;;;;;;;3.58;3.13;;;23.80;51.70;;;;;;4928001;29;20404;-68
2021/09/09 00:37:05;;;;;;;4.32;3.42;;;23.80;51.70;;;;;;4927810;29;20427;-67
2021/09/09 00:39:31;;;;;;;3.60;3.10;;;23.80;51.60;;;;;;4927078;29;20403;-72
2021/09/09 00:41:56;;;;;;;3.70;3.20;;;23.70;51.70;;;;;;4927611;29;20403;-71
2021/09/09 00:44:28;;;;;;;3.80;3.20;;;23.70;51.60;;;;;;4927867;29;20466;-68
2021/09/09 00:47:09;;;;;;;4.30;3.50;;;23.70;51.60;;;;;;4927433;29;20427;-72
2021/09/09 00:49:42;;;;;;;3.47;3.17;;;23.70;51.60;;;;;;4927638;29;20414;-71
2021/09/09 00:52:10;;;;;;;3.83;3.10;;;23.70;51.60;;;;;;4927159;29;20403;-72
2021/09/09 00:54:37;;;;;;;3.33;3.03;;;23.70;51.60;;;;;;4927450;29;21065;-72
2021/09/09 00:57:05;;;;;;;3.95;3.30;;;23.70;51.60;;;;;;4927606;29;20939;-71
2021/09/09 00:59:34;;;;;;;3.73;3.10;;;23.70;51.50;;;;;;4925263;29;21128;-69
2021/09/09 01:02:02;;;;;;;4.35;3.17;;;23.70;51.70;;;;;;4926364;29;20435;-69
2021/09/09 01:04:28;;;;;;;4.50;3.00;;;23.60;51.40;;;;;;4932978;29;20451;-71
2021/09/09 01:06:56;;;;;;;4.32;2.80;;;23.70;51.40;;;;;;4927177;29;20395;-70
2021/09/09 01:09:22;;;;;;;3.83;2.97;;;23.70;51.60;;;;;;4932919;29;20427;-69
2021/09/09 01:11:49;;;;;;;3.93;2.87;;;23.70;51.60;;;;;;4927154;29;20430;-69
2021/09/09 01:14:16;;;;;;;3.85;2.92;;;23.70;52.10;;;;;;4927091;29;20474;-68
2021/09/09 01:16:44;;;;;;;3.95;2.80;;;23.70;51.60;;;;;;4926727;29;20439;-72
2021/09/09 01:19:12;;;;;;;4.13;2.92;;;23.70;51.90;;;;;;4941379;28;20884;-67
2021/09/09 01:21:38;;;;;;;3.80;3.00;;;23.70;51.90;;;;;;4927249;29;20411;-71
2021/09/09 01:24:23;;;;;;;4.20;3.25;;;23.70;51.90;;;;;;4927573;29;20407;-72
2021/09/09 01:26:54;;;;;;;4.22;3.00;;;23.70;51.80;;;;;;4926887;29;20439;-71
2021/09/09 01:29:22;;;;;;;3.95;3.20;;;23.60;51.90;;;;;;4926847;29;20494;-71
2021/09/09 01:31:50;;;;;;;3.65;3.13;;;23.60;52.00;;;;;;4927128;29;20908;-68
2021/09/09 01:34:16;;;;;;;5.03;3.25;;;23.60;51.90;;;;;;4926929;29;20404;-71
2021/09/09 01:36:44;;;;;;;4.28;3.05;;;23.60;52.00;;;;;;4926592;29;20454;-69
2021/09/09 01:39:11;;;;;;;4.37;3.00;;;23.60;52.00;;;;;;4920417;29;20442;-68
2021/09/09 01:41:37;;;;;;;4.68;3.10;;;23.60;51.80;;;;;;4918422;29;20772;-72
2021/09/09 01:44:03;;;;;;;3.60;3.05;;;23.60;51.80;;;;;;4926758;29;20888;-71
2021/09/09 01:46:30;;;;;;;3.78;3.00;;;23.60;51.70;;;;;;4911965;29;20415;-67
2021/09/09 01:48:56;;;;;;;4.30;3.30;;;23.60;52.00;;;;;;4927007;29;20419;-71
2021/09/09 01:51:24;;;;;;;3.75;3.03;;;23.60;51.80;;;;;;4919940;29;20415;-72
2021/09/09 01:53:50;;;;;;;3.42;3.00;;;23.60;51.90;;;;;;4926543;29;20470;-66
2021/09/09 01:56:16;;;;;;;3.72;3.00;;;23.60;51.70;;;;;;4925773;29;20908;-69
2021/09/09 01:58:42;;;;;;;4.95;3.30;;;23.60;51.80;;;;;;4926625;29;20410;-67
2021/09/09 02:01:09;;;;;;;3.88;3.42;;;23.50;51.70;;;;;;4926286;29;20459;-68
2021/09/09 02:03:35;;;;;;;4.07;3.13;;;23.50;51.80;;;;;;4924945;29;20415;-71
2021/09/09 02:06:02;;;;;;;4.90;3.17;;;23.50;51.80;;;;;;4940902;29;20402;-70
2021/09/09 02:08:28;;;;;;;3.75;3.30;;;23.50;51.70;;;;;;4925345;29;20396;-71
2021/09/09 02:10:53;;;;;;;4.20;3.08;;;23.50;51.60;;;;;;4924462;29;20817;-69
2021/09/09 02:13:19;;;;;;;3.63;3.05;;;23.50;51.70;;;;;;4925666;29;20482;-71
2021/09/09 02:15:47;;;;;;;3.50;3.10;;;23.50;51.70;;;;;;4926131;29;20435;-71
2021/09/09 02:18:13;;;;;;;4.40;3.20;;;23.50;51.70;;;;;;4925616;29;20427;-71
2021/09/09 02:20:39;;;;;;;3.65;3.35;;;23.50;51.60;;;;;;4924996;29;21055;-70
2021/09/09 02:23:05;;;;;;;3.95;3.20;;;23.50;51.60;;;;;;4926039;29;20892;-71
2021/09/09 02:25:31;;;;;;;3.43;2.90;;;23.50;51.60;;;;;;4925654;29;21484;-66
2021/09/09 02:27:58;;;;;;;3.53;2.92;;;23.40;51.50;;;;;;4913418;29;20403;-71
2021/09/09 02:30:26;;;;;;;4.32;3.22;;;23.40;51.60;;;;;;4925060;29;20490;-68
2021/09/09 02:32:53;;;;;;;3.57;3.00;;;23.40;51.70;;;;;;4926227;29;20951;-66
2021/09/09 02:35:19;;;;;;;3.55;2.97;;;23.40;51.60;;;;;;4925991;29;20403;-71
2021/09/09 02:37:45;;;;;;;3.53;2.90;;;23.40;51.50;;;;;;4925898;29;20793;-72
2021/09/09 02:40:12;;;;;;;3.50;3.08;;;23.40;51.60;;;;;;4925635;29;20402;-71
2021/09/09 02:42:39;;;;;;;3.40;3.10;;;23.40;51.60;;;;;;4925836;29;20411;-72
2021/09/09 02:45:06;;;;;;;3.90;3.00;;;23.40;51.60;;;;;;4940279;29;20458;-71
2021/09/09 02:47:32;;;;;;;3.90;3.20;;;23.40;51.60;;;;;;4926004;29;21026;-72
2021/09/09 02:49:58;;;;;;;4.07;3.30;;;23.40;51.60;;;;;;4925705;29;20399;-72
2021/09/09 02:52:24;;;;;;;4.10;2.97;;;23.40;51.60;;;;;;4925685;29;20475;-67
2021/09/09 02:54:50;;;;;;;3.47;3.03;;;23.40;51.50;;;;;;4925779;29;20414;-70
2021/09/09 02:57:16;;;;;;;4.05;3.20;;;23.40;51.50;;;;;;4924160;29;20514;-71
2021/09/09 02:59:45;;;;;;;3.65;3.05;;;23.40;51.60;;;;;;4925727;29;20975;-69
2021/09/09 03:02:11;;;;;;;3.40;3.10;;;23.40;51.60;;;;;;4925485;29;20466;-71
2021/09/09 03:04:37;;;;;;;4.43;3.10;;;23.40;51.50;;;;;;4925258;29;20643;-72
2021/09/09 03:07:03;;;;;;;4.18;3.13;;;23.30;51.60;;;;;;4925543;29;20399;-68
2021/09/09 03:09:29;;;;;;;3.58;3.03;;;23.30;51.80;;;;;;4925441;29;20392;-71
2021/09/09 03:11:55;;;;;;;3.50;3.03;;;23.30;51.80;;;;;;4925661;29;21346;-71
2021/09/09 03:14:21;;;;;;;3.25;2.83;;;23.30;52.10;;;;;;4925004;29;20418;-71
2021/09/09 03:16:47;;;;;;;3.92;2.92;;;23.30;52.90;;;;;;4911013;29;20884;-70
2021/09/09 03:19:13;;;;;;;4.47;3.13;;;23.30;53.10;;;;;;4918584;29;20529;-72
2021/09/09 03:21:39;;;;;;;4.57;3.20;;;23.30;54.20;;;;;;4924190;29;20988;-71
2021/09/09 03:24:05;;;;;;;5.73;3.30;;;23.40;53.60;;;;;;4937669;29;20406;-71
2021/09/09 03:26:31;;;;;;;3.63;3.13;;;23.40;54.20;;;;;;4922206;29;20411;-68
2021/09/09 03:28:57;;;;;;;4.57;3.00;;;23.40;54.10;;;;;;4924493;29;20392;-67
2021/09/09 03:31:26;;;;;;;4.30;3.13;;;23.50;54.30;;;;;;4923596;29;20415;-69
2021/09/09 03:33:52;;;;;;;3.50;3.10;;;23.50;54.60;;;;;;4923087;29;20395;-66
2021/09/09 03:36:19;;;;;;;3.45;2.95;;;23.50;54.30;;;;;;4923094;29;20436;-71
2021/09/09 03:38:45;;;;;;;4.50;3.20;;;23.50;53.50;;;;;;4923145;29;20543;-71
2021/09/09 03:41:11;;;;;;;5.10;3.00;;;23.50;53.70;;;;;;4923981;29;20490;-71
2021/09/09 03:43:37;;;;;;;3.67;3.03;;;23.50;53.70;;;;;;4925262;29;20479;-70
2021/09/09 03:46:03;;;;;;;4.47;3.47;;;23.50;54.00;;;;;;4923446;29;20430;-72
2021/09/09 03:48:29;;;;;;;5.13;3.50;;;23.50;53.40;;;;;;4939184;29;20499;-71
2021/09/09 03:50:55;;;;;;;3.50;3.17;;;23.50;54.00;;;;;;4907762;29;20411;-72
2021/09/09 03:53:22;;;;;;;4.28;3.45;;;23.50;53.70;;;;;;4924463;29;21246;-70
2021/09/09 03:55:48;;;;;;;4.35;3.22;;;23.50;53.20;;;;;;4923392;29;20916;-71
2021/09/09 03:58:14;;;;;;;4.30;3.30;;;23.50;53.00;;;;;;4924544;29;20494;-67
2021/09/09 04:00:40;;;;;;;4.25;3.33;;;23.50;53.00;;;;;;4924860;29;20399;-72
2021/09/09 04:03:06;;;;;;;4.45;3.10;;;23.50;52.80;;;;;;4939896;29;20419;-72
2021/09/09 04:05:32;;;;;;;5.95;3.10;;;23.40;52.70;;;;;;4924950;29;20400;-71
2021/09/09 04:07:58;;;;;;;5.70;3.00;;;23.40;53.00;;;;;;4925082;29;20549;-72
2021/09/09 04:10:24;;;;;;;6.15;2.90;;;23.40;53.10;;;;;;4924453;29;20494;-72
2021/09/09 04:12:52;;;;;;;5.03;3.00;;;23.40;53.60;;;;;;4924800;29;20404;-70
2021/09/09 04:15:18;;;;;;;6.38;3.40;;;23.40;53.30;;;;;;4924438;29;20410;-71
2021/09/09 04:17:45;;;;;;;5.55;3.55;;;23.40;53.50;;;;;;4924638;29;20800;-71
2021/09/09 04:20:12;;;;;;;4.43;2.90;;;23.40;53.20;;;;;;4924734;29;20474;-71
2021/09/09 04:22:37;;;;;;;4.32;2.90;;;23.40;53.30;;;;;;4924516;29;20407;-72
2021/09/09 04:25:05;;;;;;;4.57;2.90;;;23.40;53.30;;;;;;4924698;29;20443;-71
2021/09/09 04:27:32;;;;;;;5.93;2.95;;;23.40;53.30;;;;;;4924512;29;20404;-71
2021/09/09 04:29:59;;;;;;;4.32;2.70;;;23.40;53.20;;;;;;4925139;29;20764;-70
2021/09/09 04:32:27;;;;;;;4.10;2.90;;;23.40;53.30;;;;;;4924739;29;21263;-72
2021/09/09 04:34:53;;;;;;;3.55;2.80;;;23.40;53.10;;;;;;4924533;29;20407;-71
2021/09/09 04:37:19;;;;;;;4.17;2.90;;;23.40;53.00;;;;;;4926112;29;20438;-72
2021/09/09 04:39:45;;;;;;;4.22;2.85;;;23.40;52.80;;;;;;4928123;29;20777;-71
2021/09/09 04:42:11;;;;;;;3.55;2.95;;;23.40;53.20;;;;;;4928255;29;20407;-71
2021/09/09 04:44:37;;;;;;;3.70;2.72;;;23.40;52.90;;;;;;4927308;29;20406;-71
2021/09/09 04:47:03;;;;;;;3.70;2.80;;;23.40;53.00;;;;;;4916919;29;20412;-68
2021/09/09 04:49:29;;;;;;;5.07;3.15;;;23.40;52.80;;;;;;4927931;29;20387;-67
2021/09/09 04:51:55;;;;;;;4.18;2.95;;;23.40;53.00;;;;;;4926778;29;20412;-70
2021/09/09 04:54:21;;;;;;;4.53;2.90;;;23.40;52.90;;;;;;4942200;29;20412;-68
2021/09/09 04:56:47;;;;;;;4.10;3.15;;;23.40;52.90;;;;;;4927213;29;20435;-66
2021/09/09 04:59:13;;;;;;;4.13;3.22;;;23.40;52.90;;;;;;4925994;29;20900;-72
2021/09/09 05:01:39;;;;;;;5.07;3.20;;;23.40;52.60;;;;;;4927787;29;20411;-72
2021/09/09 05:04:05;;;;;;;4.30;3.30;;;23.40;52.90;;;;;;4927628;29;20402;-69
2021/09/09 05:06:31;;;;;;;4.10;3.22;;;23.30;52.60;;;;;;4927147;29;20399;-70
2021/09/09 05:08:57;;;;;;;5.35;3.35;;;23.30;52.60;;;;;;4942126;29;20399;-67
2021/09/09 05:11:23;;;;;;;4.77;3.40;;;23.30;52.70;;;;;;4927660;29;20395;-72
2021/09/09 05:13:49;;;;;;;3.80;3.20;;;23.30;52.50;;;;;;4941967;29;20396;-67
2021/09/09 05:16:14;;;;;;;3.70;2.97;;;23.30;52.70;;;;;;4925895;29;21029;-72
2021/09/09 05:18:41;;;;;;;4.20;2.90;;;23.30;52.60;;;;;;4926852;29;20494;-70
2021/09/09 05:21:06;;;;;;;3.50;2.90;;;23.40;52.60;;;;;;4927665;29;20399;-71
2021/09/09 05:23:32;;;;;;;3.60;3.10;;;23.30;52.50;;;;;;4927020;29;20412;-70
2021/09/09 05:25:58;;;;;;;4.50;3.25;;;23.30;52.50;;;;;;4926740;29;20403;-71
2021/09/09 05:28:24;;;;;;;4.07;3.20;;;23.30;52.60;;;;;;4924977;29;20452;-72
2021/09/09 05:30:50;;;;;;;4.15;2.88;;;23.30;52.50;;;;;;4927085;29;20426;-70
2021/09/09 05:33:16;;;;;;;4.35;3.13;;;23.30;52.40;;;;;;4927259;29;20404;-71
2021/09/09 05:35:44;;;;;;;4.15;3.10;;;23.30;52.70;;;;;;4926841;29;20426;-72
2021/09/09 05:38:10;;;;;;;4.27;3.10;;;23.30;52.60;;;;;;4927011;29;20495;-66
2021/09/09 05:40:36;;;;;;;4.88;3.47;;;23.30;53.30;;;;;;4925394;29;20399;-72
2021/09/09 05:43:02;;;;;;;4.63;3.30;;;23.30;52.60;;;;;;4926849;29;20411;-71
2021/09/09 05:45:29;;;;;;;4.90;3.47;;;23.30;52.60;;;;;;4925628;29;20403;-70
2021/09/09 05:47:55;;;;;;;7.17;4.17;;;23.30;52.70;;;;;;4926496;29;20510;-70
2021/09/09 05:50:21;;;;;;;8.50;4.45;;;23.30;52.60;;;;;;4926889;29;20466;-71
2021/09/09 05:52:47;;;;;;;7.38;4.53;;;23.30;52.70;;;;;;4926651;29;20920;-71
2021/09/09 05:55:14;;;;;;;9.50;4.72;;;23.30;52.60;;;;;;4925563;29;20776;-66
2021/09/09 05:57:42;;;;;;;8.30;4.93;;;23.30;52.60;;;;;;4926793;29;20593;-69
2021/09/09 06:00:10;;;;;;;7.72;4.30;;;23.30;52.60;;;;;;4926674;29;20391;-73
2021/09/09 06:02:44;;;;;;;8.30;4.63;;;23.30;52.60;;;;;;4926221;29;20403;-70
2021/09/09 06:05:12;;;;;;;6.70;3.72;;;23.30;52.40;;;;;;4927179;29;20482;-72
2021/09/09 06:07:38;;;;;;;7.25;4.20;;;23.30;52.20;;;;;;4926718;29;20396;-72
2021/09/09 06:10:05;;;;;;;6.38;3.92;;;23.30;51.90;;;;;;4926400;29;20435;-70
2021/09/09 06:12:31;;;;;;;6.05;3.88;;;23.30;52.50;;;;;;4925850;29;20410;-71
2021/09/09 06:14:57;;;;;;;5.27;3.80;;;23.30;52.60;;;;;;4926121;29;20400;-71
2021/09/09 06:17:23;;;;;;;5.43;3.53;;;23.30;52.10;;;;;;4926001;29;20447;-67
2021/09/09 06:19:50;;;;;;;5.10;3.60;;;23.30;52.50;;;;;;4926605;29;20402;-72
2021/09/09 06:22:16;;;;;;;4.40;3.10;;;23.30;52.50;;;;;;4926114;29;20403;-71
2021/09/09 06:24:42;;;;;;;5.55;3.70;;;23.30;52.60;;;;;;4925953;29;20399;-71
2021/09/09 06:27:08;;;;;;;4.88;3.38;;;23.30;52.40;;;;;;4926173;29;20900;-71
2021/09/09 06:29:34;;;;;;;4.60;3.50;;;23.30;52.60;;;;;;4926206;29;20414;-66
2021/09/09 06:32:00;;;;;;;5.00;3.43;;;23.30;52.50;;;;;;4928367;29;20805;-71
2021/09/09 06:34:26;;;;;;;5.00;3.60;;;23.30;52.40;;;;;;4940002;29;20395;-68
2021/09/09 06:36:52;;;;;;;4.80;3.33;;;23.30;52.50;;;;;;4940480;29;20458;-72
2021/09/09 06:39:19;;;;;;;4.32;3.63;;;23.30;52.40;;;;;;4925319;29;20999;-72
2021/09/09 06:41:45;;;;;;;5.50;3.63;;;23.30;52.30;;;;;;4924513;29;21037;-69
2021/09/09 06:44:15;;;;;;;5.13;3.80;;;23.30;52.10;;;;;;4925770;29;20439;-68
2021/09/09 06:46:42;;;;;;;4.38;3.45;;;23.30;52.10;;;;;;4925256;29;20443;-70
2021/09/09 06:49:09;;;;;;;4.68;3.40;;;23.30;51.60;;;;;;4924347;29;20462;-71
2021/09/09 06:51:36;;;;;;;4.68;3.70;;;23.30;52.10;;;;;;4926026;29;20442;-66
2021/09/09 06:54:02;;;;;;;4.78;3.40;;;23.30;51.80;;;;;;4925706;29;20399;-72
2021/09/09 06:56:28;;;;;;;3.85;3.30;;;23.30;51.60;;;;;;4925235;29;20866;-68
2021/09/09 06:58:54;;;;;;;4.35;3.30;;;23.30;51.40;;;;;;4925217;29;20482;-72
2021/09/09 07:01:20;;;;;;;4.57;3.58;;;23.30;51.50;;;;;;4925336;29;20470;-72
2021/09/09 07:03:48;;;;;;;4.85;3.30;;;23.30;51.80;;;;;;4925785;29;20412;-72
2021/09/09 07:06:15;;;;;;;4.18;3.25;;;23.40;51.90;;;;;;4925594;29;20407;-71
2021/09/09 07:08:41;;;;;;;4.25;3.53;;;23.40;52.10;;;;;;4924944;29;20426;-69
2021/09/09 07:11:08;;;;;;;4.95;3.60;;;23.40;52.10;;;;;;4924402;29;20908;-71
2021/09/09 07:13:34;;;;;;;4.25;3.20;;;23.40;52.20;;;;;;4925220;29;20395;-70
2021/09/09 07:16:01;;;;;;;4.80;3.67;;;23.40;52.10;;;;;;4929446;29;20438;-67
2021/09/09 07:18:27;;;;;;;4.53;3.33;;;23.40;52.10;;;;;;4925070;29;20426;-71
2021/09/09 07:20:53;;;;;;;4.30;3.58;;;23.40;51.90;;;;;;4924940;29;20399;-69
2021/09/09 07:23:19;;;;;;;4.53;3.38;;;23.40;52.00;;;;;;4925256;29;20403;-69
2021/09/09 07:25:46;;;;;;;4.03;3.20;;;23.40;52.20;;;;;;4923902;29;20407;-72
2021/09/09 07:28:11;;;;;;;4.25;3.47;;;23.40;52.10;;;;;;4925195;29;20396;-72
2021/09/09 07:30:37;;;;;;;4.38;3.10;;;23.50;52.00;;;;;;4924974;28;20405;-69
2021/09/09 07:33:04;;;;;;;4.10;3.50;;;23.40;52.10;;;;;;4928220;29;20428;-70
2021/09/09 07:35:30;;;;;;;3.95;3.20;;;23.50;52.10;;;;;;4933890;29;20400;-69
2021/09/09 07:37:56;;;;;;;4.03;2.90;;;23.50;52.10;;;;;;4933952;29;20408;-71
2021/09/09 07:40:22;;;;;;;4.30;3.23;;;23.50;52.20;;;;;;4933791;29;20392;-71
2021/09/09 07:42:48;;;;;;;4.00;3.00;;;23.50;52.10;;;;;;4932445;29;20538;-72
2021/09/09 07:45:14;;;;;;;4.50;3.50;;;23.50;52.10;;;;;;4932538;29;20414;-72
2021/09/09 07:47:40;;;;;;;4.10;3.20;;;23.50;52.20;;;;;;4932750;29;20616;-70
2021/09/09 07:50:10;;;;;;;3.92;3.40;;;23.50;52.10;;;;;;4932306;29;20399;-72
2021/09/09 07:52:36;;;;;;;4.10;3.20;;;23.50;52.10;;;;;;4932698;29;20396;-73
2021/09/09 07:55:03;;;;;;;3.90;3.33;;;23.50;52.10;;;;;;4932860;29;20388;-71
2021/09/09 07:57:29;;;;;;;3.70;3.20;;;23.50;52.10;;;;;;4933259;29;20436;-70
2021/09/09 07:59:54;;;;;;;4.07;3.30;;;23.60;52.20;;;;;;4933547;29;20455;-72
2021/09/09 08:02:20;;;;;;;4.35;3.20;;;23.50;52.10;;;;;;4933004;29;20400;-71
2021/09/09 08:04:45;;;;;;;4.07;3.20;;;23.50;52.00;;;;;;4932837;29;20402;-72
2021/09/09 08:07:11;;;;;;;3.55;3.15;;;23.60;52.10;;;;;;4933514;29;20404;-71
2021/09/09 08:09:37;;;;;;;3.60;2.80;;;23.60;52.00;;;;;;4933621;29;20396;-70
2021/09/09 08:12:03;;;;;;;3.50;3.00;;;23.60;52.00;;;;;;4931532;29;20422;-68
2021/09/09 08:14:29;;;;;;;3.90;3.00;;;23.60;52.00;;;;;;4934398;29;20454;-68
2021/09/09 08:16:55;;;;;;;3.23;2.80;;;23.60;51.90;;;;;;4927678;29;20439;-71
2021/09/09 08:19:20;;;;;;;3.75;3.25;;;23.60;51.90;;;;;;4928282;29;20567;-72
2021/09/09 08:21:46;;;;;;;3.67;3.27;;;23.60;52.00;;;;;;4927844;29;20769;-68
2021/09/09 08:24:12;;;;;;;3.45;3.00;;;23.60;51.90;;;;;;4942524;29;20404;-71
2021/09/09 08:26:37;;;;;;;3.93;3.23;;;23.60;52.00;;;;;;4927740;29;20455;-72
2021/09/09 08:29:04;;;;;;;3.67;3.10;;;23.60;51.90;;;;;;4927521;29;20958;-70
2021/09/09 08:31:30;;;;;;;3.70;2.90;;;23.60;52.00;;;;;;4927653;29;20726;-71
2021/09/09 08:33:56;;;;;;;3.47;2.70;;;23.60;51.90;;;;;;4927886;29;20411;-69
2021/09/09 08:36:22;;;;;;;3.80;3.05;;;23.60;51.90;;;;;;4927371;29;20462;-71
2021/09/09 08:38:49;;;;;;;3.92;3.10;;;23.60;52.00;;;;;;4927509;29;20428;-66
2021/09/09 08:41:15;;;;;;;3.78;3.00;;;23.70;52.10;;;;;;4927861;29;20443;-69
2021/09/09 08:43:41;;;;;;;4.25;3.28;;;23.60;51.90;;;;;;4927425;29;20412;-68
2021/09/09 08:46:07;;;;;;;3.72;3.30;;;23.70;52.00;;;;;;4927672;29;20396;-71
2021/09/09 08:48:32;;;;;;;3.60;2.90;;;23.70;52.00;;;;;;4927153;29;20415;-71
2021/09/09 08:50:59;;;;;;;3.78;2.90;;;23.70;52.00;;;;;;4927432;29;20410;-71
2021/09/09 08:53:25;;;;;;;3.63;3.03;;;23.70;51.90;;;;;;4927755;29;20404;-72
2021/09/09 08:55:51;;;;;;;2.90;2.60;;;23.70;52.00;;;;;;4927509;29;20440;-72
2021/09/09 08:58:19;;;;;;;3.50;3.10;;;23.70;52.00;;;;;;4927709;29;20885;-71
2021/09/09 09:01:06;;;;;;;3.78;3.08;;;23.70;52.00;;;;;;4927270;29;20428;-71
2021/09/09 09:03:49;;;;;;;3.80;3.20;;;23.70;52.00;;;;;;4926198;29;20472;-69
2021/09/09 09:06:24;;;;;;;3.83;2.90;;;23.70;52.10;;;;;;4927680;29;20388;-72
2021/09/09 09:08:54;;;;;;;3.97;3.10;;;23.70;52.00;;;;;;4926828;29;20800;-72
2021/09/09 09:11:31;;;;;;;4.28;3.05;;;23.70;52.00;;;;;;4926957;29;20434;-67
2021/09/09 09:13:58;;;;;;;3.37;3.07;;;23.70;52.10;;;;;;4926940;29;20494;-66
2021/09/09 09:16:25;;;;;;;4.50;3.08;;;23.70;52.20;;;;;;4927129;29;20919;-72
2021/09/09 09:18:51;;;;;;;3.30;2.80;;;23.70;52.20;;;;;;4926967;29;20435;-69
2021/09/09 09:21:19;;;;;;;3.35;2.90;;;23.70;52.30;;;;;;4927322;29;20403;-71
2021/09/09 09:23:57;;;;;;;2.85;2.53;;;23.70;52.30;;;;;;4926059;29;20384;-71
2021/09/09 09:26:22;;;;;;;3.30;2.90;;;23.70;52.90;;;;;;4927042;29;20407;-72
2021/09/09 09:28:57;;;;;;;3.13;2.70;;;23.70;52.50;;;;;;4925754;29;20407;-71
2021/09/09 09:31:25;;;;;;;3.30;2.90;;;23.80;52.20;;;;;;4926416;29;21260;-71
2021/09/09 09:34:01;;;;;;;3.85;3.20;;;23.70;52.00;;;;;;4926701;29;20412;-66
2021/09/09 09:36:35;;;;;;;3.67;3.25;;;23.80;51.90;;;;;;4940742;29;21264;-67
2021/09/09 09:39:05;;;;;;;3.50;3.13;;;23.80;51.70;;;;;;4925488;29;21017;-67
2021/09/09 09:41:30;;;;;;;3.75;3.10;;;23.80;51.70;;;;;;4926270;29;20501;-71
2021/09/09 09:44:00;;;;;;;3.50;2.97;;;23.80;51.70;;;;;;4926202;29;21042;-72
2021/09/09 09:46:26;;;;;;;3.80;3.40;;;23.80;51.70;;;;;;4925888;29;20411;-66
2021/09/09 09:48:52;;;;;;;3.20;2.90;;;23.80;51.80;;;;;;4926892;29;20411;-72
2021/09/09 09:51:39;;;;;;;3.45;2.83;;;23.80;51.70;;;;;;4926398;29;20401;-71
2021/09/09 09:54:13;;;;;;;3.28;2.97;;;23.80;51.80;;;;;;4926723;29;20400;-69
2021/09/09 09:56:40;;;;;;;4.20;3.30;;;23.80;51.80;;;;;;4925823;29;20999;-71
2021/09/09 09:59:06;;;;;;;3.83;3.05;;;23.80;51.70;;;;;;4925646;29;20435;-66
2021/09/09 10:01:33;;;;;;;4.60;2.83;;;23.80;52.00;;;;;;4926390;29;20420;-71
2021/09/09 10:04:10;;;;;;;4.05;3.10;;;23.80;52.00;;;;;;4925769;29;20407;-70
2021/09/09 10:06:36;;;;;;;3.90;3.17;;;23.80;52.20;;;;;;4926082;29;20471;-68
2021/09/09 10:09:04;;;;;;;4.72;3.03;;;23.80;52.20;;;;;;4926123;29;20400;-72
2021/09/09 10:11:31;;;;;;;4.00;3.20;;;23.80;52.30;;;;;;4924961;29;20411;-71
2021/09/09 10:13:58;;;;;;;3.60;2.92;;;23.80;52.20;;;;;;4925510;29;20399;-69
2021/09/09 10:16:27;;;;;;;3.72;3.17;;;23.70;52.20;;;;;;4926106;29;20459;-71
2021/09/09 10:18:53;;;;;;;3.88;3.10;;;23.70;52.10;;;;;;4926111;29;20400;-72
2021/09/09 10:21:45;;;;;;;4.80;3.10;;;23.70;52.10;;;;;;4926076;29;20422;-72
2021/09/09 10:24:17;;;;;;;3.60;3.00;;;23.70;52.20;;;;;;4926177;29;20412;-72
2021/09/09 10:26:43;;;;;;;3.90;3.30;;;23.70;52.10;;;;;;4925982;29;20404;-67
2021/09/09 10:29:41;;;;;;;4.50;3.00;;;23.70;52.20;;;;;;4925979;29;20439;-70
2021/09/09 10:32:07;;;;;;;3.78;3.20;;;23.70;52.10;;;;;;4925919;29;20391;-71
2021/09/09 10:34:32;;;;;;;3.55;3.08;;;23.70;52.20;;;;;;4925246;29;21482;-66
2021/09/09 10:36:58;;;;;;;3.42;3.05;;;23.70;52.20;;;;;;4925594;29;20489;-71
2021/09/09 10:39:36;;;;;;;3.57;2.90;;;23.70;52.10;;;;;;4940151;29;20467;-70
2021/09/09 10:42:33;;;;;;;3.50;3.20;;;23.70;52.20;;;;;;4923851;29;20951;-68
2021/09/09 10:44:59;;;;;;;3.45;3.03;;;23.70;52.20;;;;;;4916408;29;20404;-71
2021/09/09 10:47:24;;;;;;;3.50;3.10;;;23.70;52.20;;;;;;4924100;29;20422;-69
2021/09/09 10:50:05;;;;;;;3.60;3.10;;;23.70;52.30;;;;;;4924229;29;20412;-71
2021/09/09 10:52:53;;;;;;;3.60;3.10;;;23.70;52.20;;;;;;4913718;29;20411;-67
2021/09/09 10:55:28;;;;;;;3.60;3.25;;;23.70;52.20;;;;;;4925650;29;20387;-71
2021/09/09 10:58:15;;;;;;;4.27;3.10;;;23.70;52.20;;;;;;4919593;29;21020;-70
2021/09/09 11:00:52;;;;;;;4.05;3.05;;;23.70;52.10;;;;;;4925114;29;20403;-71
2021/09/09 11:03:46;;;;;;;3.85;3.15;;;23.70;52.10;;;;;;4925345;29;20812;-69
2021/09/09 11:06:17;;;;;;;3.50;3.00;;;23.70;52.10;;;;;;4925350;29;20403;-71
2021/09/09 11:08:45;;;;;;;3.53;3.10;;;23.70;52.10;;;;;;4925501;29;20506;-70
2021/09/09 11:11:21;;;;;;;3.47;2.93;;;23.70;52.10;;;;;;4924778;29;21533;-68
2021/09/09 11:13:54;;;;;;;3.63;3.20;;;23.70;52.00;;;;;;4925346;29;20411;-66
2021/09/09 11:16:22;;;;;;;4.00;3.13;;;23.70;52.20;;;;;;4925144;29;20515;-71
2021/09/09 11:18:48;;;;;;;4.05;3.00;;;23.70;52.00;;;;;;4924207;29;20407;-71
2021/09/09 11:21:22;;;;;;;4.18;3.30;;;23.70;52.20;;;;;;4925495;29;20512;-71
2021/09/09 11:23:49;;;;;;;4.20;3.20;;;23.70;52.20;;;;;;4925191;29;20730;-70
2021/09/09 11:26:20;;;;;;;4.28;3.45;;;23.80;52.20;;;;;;4924741;28;20395;-72
2021/09/09 11:28:47;;;;;;;3.95;3.40;;;23.80;52.10;;;;;;4924661;29;20399;-69
2021/09/09 11:31:16;;;;;;;4.90;2.97;;;24.20;52.50;;;;;;4925386;29;20403;-72
2021/09/09 11:33:55;;;;;;;3.70;3.00;;;23.80;52.20;;;;;;4925067;29;20494;-71
2021/09/09 11:36:25;;;;;;;5.13;3.45;;;23.80;52.20;;;;;;4924430;29;20419;-73
2021/09/09 11:38:52;;;;;;;3.90;3.28;;;23.80;52.00;;;;;;4923713;29;20459;-70
2021/09/09 11:41:20;;;;;;;4.93;3.25;;;23.80;51.90;;;;;;4924727;29;20416;-72
2021/09/09 11:43:58;;;;;;;4.85;3.58;;;23.80;51.90;;;;;;4924904;29;20419;-71
2021/09/09 11:46:31;;;;;;;4.32;3.60;;;23.80;51.90;;;;;;4927173;29;20482;-69
2021/09/09 11:49:04;;;;;;;4.97;3.80;;;23.80;51.90;;;;;;4928284;29;20392;-69
2021/09/09 11:51:40;;;;;;;4.70;3.35;;;23.80;51.80;;;;;;4928934;29;20387;-71
2021/09/09 11:54:27;;;;;;;4.28;3.67;;;23.90;51.90;;;;;;4928472;29;20387;-69
2021/09/09 11:57:05;;;;;;;4.15;3.75;;;23.80;51.80;;;;;;4920450;29;20439;-68
2021/09/09 11:59:38;;;;;;;4.78;3.70;;;23.90;51.80;;;;;;4928662;29;20391;-69
2021/09/09 12:02:08;;;;;;;4.20;3.80;;;23.90;51.80;;;;;;4928483;29;20418;-71
2021/09/09 12:04:37;;;;;;;3.92;3.53;;;23.90;51.80;;;;;;4928376;29;20396;-68
2021/09/09 12:07:04;;;;;;;4.03;3.45;;;23.90;51.80;;;;;;4928401;29;20403;-71
2021/09/09 12:09:33;;;;;;;4.25;3.72;;;23.90;51.80;;;;;;4928627;29;20516;-66
2021/09/09 12:12:10;;;;;;;4.43;3.70;;;23.90;51.80;;;;;;4928591;29;20411;-70
2021/09/09 12:14:39;;;;;;;3.97;3.30;;;23.90;51.80;;;;;;4928158;29;20395;-71
2021/09/09 12:17:07;;;;;;;3.90;3.45;;;23.90;51.80;;;;;;4927227;29;21051;-72
2021/09/09 12:20:08;;;;;;;4.67;3.40;;;23.90;51.90;;;;;;4928222;29;20459;-70
2021/09/09 12:22:53;;;;;;;4.72;3.70;;;23.90;51.90;;;;;;4928246;29;20502;-69
2021/09/09 12:25:27;;;;;;;4.15;3.55;;;23.90;51.90;;;;;;4928460;29;20395;-72
2021/09/09 12:28:08;;;;;;;4.47;3.60;;;23.90;51.90;;;;;;4928169;29;20432;-70
2021/09/09 12:30:39;;;;;;;4.25;3.60;;;24.00;51.90;;;;;;4928457;29;20407;-71
2021/09/09 12:33:15;;;;;;;4.03;3.40;;;24.00;51.90;;;;;;4927907;29;20880;-70
2021/09/09 12:35:58;;;;;;;4.43;3.40;;;24.00;51.90;;;;;;4928139;29;20434;-72
2021/09/09 12:38:32;;;;;;;3.90;3.50;;;24.00;51.80;;;;;;4928103;29;20478;-70
2021/09/09 12:40:58;;;;;;;3.78;3.30;;;24.00;51.80;;;;;;4927765;29;20399;-71
2021/09/09 12:43:28;;;;;;;3.97;3.53;;;24.00;51.70;;;;;;4928157;29;20403;-71
2021/09/09 12:45:55;;;;;;;4.43;3.53;;;24.00;51.80;;;;;;4928203;29;20734;-70
2021/09/09 12:48:21;;;;;;;4.05;3.40;;;24.10;51.80;;;;;;4927723;29;20407;-72
2021/09/09 12:51:04;;;;;;;4.32;3.50;;;24.00;51.70;;;;;;4926363;29;20404;-69
2021/09/09 12:53:35;;;;;;;4.85;4.15;;;24.00;51.60;;;;;;4927796;29;20769;-72